sensor_id;sensor_type;location;lat;lon;timestamp;pressure;altitude;pressure_sealevel;temperature;humidity
2675;BME280;1347;42.122;24.746;2023-01-26T00:02:11;100465.66;;;2.60;83.93
2675;BME280;1347;42.122;24.746;2023-01-26T00:04:38;100463.75;;;2.42;85.42
2675;BME280;1347;42.122;24.746;2023-01-26T00:07:05;100459.06;;;2.47;85.51
2675;BME280;1347;42.122;24.746;2023-01-26T00:09:31;100456.72;;;2.41;85.46
2675;BME280;1347;42.122;24.746;2023-01-26T00:11:58;100442.97;;;2.37;86.40
2675;BME280;1347;42.122;24.746;2023-01-26T00:14:25;100430.25;;;2.19;89.38
2675;BME280;1347;42.122;24.746;2023-01-26T00:16:52;100423.22;;;2.18;90.26
2675;BME280;1347;42.122;24.746;2023-01-26T00:19:20;100413.50;;;2.17;90.31
2675;BME280;1347;42.122;24.746;2023-01-26T00:21:47;100408.66;;;2.14;90.22
2675;BME280;1347;42.122;24.746;2023-01-26T00:24:14;100408.97;;;2.12;90.53
2675;BME280;1347;42.122;24.746;2023-01-26T00:26:41;100410.06;;;2.11;89.43
2675;BME280;1347;42.122;24.746;2023-01-26T00:29:08;100407.38;;;2.11;88.99
2675;BME280;1347;42.122;24.746;2023-01-26T00:31:35;100411.38;;;2.14;89.50
2675;BME280;1347;42.122;24.746;2023-01-26T00:34:02;100413.06;;;2.10;91.11
2675;BME280;1347;42.122;24.746;2023-01-26T00:36:30;100410.78;;;1.98;92.81
2675;BME280;1347;42.122;24.746;2023-01-26T00:38:58;100404.41;;;1.89;93.61
2675;BME280;1347;42.122;24.746;2023-01-26T00:41:27;100404.09;;;1.72;94.51
2675;BME280;1347;42.122;24.746;2023-01-26T00:44:11;100399.94;;;1.79;94.65
2675;BME280;1347;42.122;24.746;2023-01-26T00:46:38;100407.81;;;1.76;95.28
2675;BME280;1347;42.122;24.746;2023-01-26T00:49:05;100413.13;;;1.62;96.44
2675;BME280;1347;42.122;24.746;2023-01-26T00:51:33;100399.91;;;1.61;97.91
2675;BME280;1347;42.122;24.746;2023-01-26T00:54:00;100403.06;;;1.68;98.55
2675;BME280;1347;42.122;24.746;2023-01-26T00:56:27;100394.22;;;1.62;99.49
2675;BME280;1347;42.122;24.746;2023-01-26T00:58:53;100393.56;;;1.70;99.67
2675;BME280;1347;42.122;24.746;2023-01-26T01:01:20;100390.75;;;1.57;100.00
2675;BME280;1347;42.122;24.746;2023-01-26T01:03:47;100391.81;;;1.61;100.00
2675;BME280;1347;42.122;24.746;2023-01-26T01:06:16;100392.53;;;1.66;100.00
2675;BME280;1347;42.122;24.746;2023-01-26T01:08:44;100393.06;;;1.68;100.00
2675;BME280;1347;42.122;24.746;2023-01-26T01:11:11;100393.50;;;1.75;100.00
2675;BME280;1347;42.122;24.746;2023-01-26T01:13:38;100379.94;;;1.80;100.00
2675;BME280;1347;42.122;24.746;2023-01-26T01:16:06;100375.34;;;1.81;100.00
2675;BME280;1347;42.122;24.746;2023-01-26T01:18:34;100386.19;;;1.76;100.00
2675;BME280;1347;42.122;24.746;2023-01-26T01:21:05;100373.19;;;1.78;100.00
2675;BME280;1347;42.122;24.746;2023-01-26T01:23:32;100374.06;;;1.73;100.00
2675;BME280;1347;42.122;24.746;2023-01-26T01:26:00;100379.41;;;1.78;100.00
2675;BME280;1347;42.122;24.746;2023-01-26T01:28:27;100371.97;;;1.70;100.00
2675;BME280;1347;42.122;24.746;2023-01-26T01:30:54;100376.44;;;1.80;100.00
2675;BME280;1347;42.122;24.746;2023-01-26T01:33:21;100364.38;;;1.91;100.00
2675;BME280;1347;42.122;24.746;2023-01-26T01:35:55;100373.34;;;1.87;100.00
2675;BME280;1347;42.122;24.746;2023-01-26T01:38:22;100358.97;;;1.91;100.00
2675;BME280;1347;42.122;24.746;2023-01-26T01:40:49;100357.81;;;1.97;100.00
2675;BME280;1347;42.122;24.746;2023-01-26T01:43:18;100361.16;;;2.08;100.00
2675;BME280;1347;42.122;24.746;2023-01-26T01:45:46;100363.97;;;2.21;100.00
2675;BME280;1347;42.122;24.746;2023-01-26T01:48:18;100358.41;;;2.13;100.00
2675;BME280;1347;42.122;24.746;2023-01-26T01:50:46;100348.59;;;2.17;100.00
2675;BME280;1347;42.122;24.746;2023-01-26T01:53:17;100351.22;;;2.22;100.00
2675;BME280;1347;42.122;24.746;2023-01-26T01:55:51;100348.66;;;2.31;100.00
2675;BME280;1347;42.122;24.746;2023-01-26T01:58:21;100343.97;;;2.36;100.00
2675;BME280;1347;42.122;24.746;2023-01-26T02:00:48;100339.00;;;2.43;100.00
2675;BME280;1347;42.122;24.746;2023-01-26T02:03:16;100320.41;;;2.37;100.00
2675;BME280;1347;42.122;24.746;2023-01-26T02:05:53;100321.75;;;2.39;100.00
2675;BME280;1347;42.122;24.746;2023-01-26T02:08:24;100324.44;;;2.39;100.00
2675;BME280;1347;42.122;24.746;2023-01-26T02:10:54;100326.28;;;2.44;100.00
2675;BME280;1347;42.122;24.746;2023-01-26T02:13:25;100326.28;;;2.44;100.00
2675;BME280;1347;42.122;24.746;2023-01-26T02:15:53;100320.41;;;2.37;100.00
2675;BME280;1347;42.122;24.746;2023-01-26T02:18:20;100329.28;;;2.42;100.00
2675;BME280;1347;42.122;24.746;2023-01-26T02:20:49;100324.78;;;2.51;100.00
2675;BME280;1347;42.122;24.746;2023-01-26T02:23:23;100323.09;;;2.55;100.00
2675;BME280;1347;42.122;24.746;2023-01-26T02:26:07;100314.69;;;2.57;100.00
2675;BME280;1347;42.122;24.746;2023-01-26T02:28:36;100313.34;;;2.54;100.00
2675;BME280;1347;42.122;24.746;2023-01-26T02:31:04;100320.59;;;2.59;100.00
2675;BME280;1347;42.122;24.746;2023-01-26T02:33:32;100322.44;;;2.45;100.00
2675;BME280;1347;42.122;24.746;2023-01-26T02:35:59;100311.00;;;2.34;100.00
2675;BME280;1347;42.122;24.746;2023-01-26T02:38:30;100303.47;;;2.31;100.00
2675;BME280;1347;42.122;24.746;2023-01-26T02:41:03;100305.41;;;2.12;100.00
2675;BME280;1347;42.122;24.746;2023-01-26T02:43:33;100297.00;;;2.13;100.00
2675;BME280;1347;42.122;24.746;2023-01-26T02:45:59;100296.34;;;2.21;100.00
2675;BME280;1347;42.122;24.746;2023-01-26T02:48:26;100294.50;;;2.17;100.00
2675;BME280;1347;42.122;24.746;2023-01-26T02:51:22;100288.22;;;2.21;100.00
2675;BME280;1347;42.122;24.746;2023-01-26T02:53:49;100293.91;;;2.20;100.00
2675;BME280;1347;42.122;24.746;2023-01-26T02:56:16;100294.16;;;2.24;100.00
2675;BME280;1347;42.122;24.746;2023-01-26T02:58:43;100286.44;;;2.31;100.00
2675;BME280;1347;42.122;24.746;2023-01-26T03:01:10;100290.47;;;2.33;100.00
2675;BME280;1347;42.122;24.746;2023-01-26T03:03:36;100277.34;;;2.40;100.00
2675;BME280;1347;42.122;24.746;2023-01-26T03:06:11;100288.69;;;2.42;100.00
2675;BME280;1347;42.122;24.746;2023-01-26T03:08:38;100284.72;;;2.53;100.00
2675;BME280;1347;42.122;24.746;2023-01-26T03:11:06;100286.00;;;2.56;100.00
2675;BME280;1347;42.122;24.746;2023-01-26T03:13:34;100283.50;;;2.59;100.00
2675;BME280;1347;42.122;24.746;2023-01-26T03:16:05;100280.91;;;2.68;100.00
2675;BME280;1347;42.122;24.746;2023-01-26T03:18:33;100274.13;;;2.71;100.00
2675;BME280;1347;42.122;24.746;2023-01-26T03:21:18;100263.97;;;2.76;100.00
2675;BME280;1347;42.122;24.746;2023-01-26T03:24:02;100260.19;;;2.77;99.20
2675;BME280;1347;42.122;24.746;2023-01-26T03:26:47;100254.38;;;2.70;99.46
2675;BME280;1347;42.122;24.746;2023-01-26T03:29:31;100266.28;;;2.69;99.46
2675;BME280;1347;42.122;24.746;2023-01-26T03:32:00;100261.16;;;2.68;99.42
2675;BME280;1347;42.122;24.746;2023-01-26T03:34:27;100251.44;;;2.67;99.90
2675;BME280;1347;42.122;24.746;2023-01-26T03:36:55;100237.91;;;2.67;99.93
2675;BME280;1347;42.122;24.746;2023-01-26T03:39:22;100237.63;;;2.68;99.25
2675;BME280;1347;42.122;24.746;2023-01-26T03:42:06;100237.00;;;2.57;99.28
2675;BME280;1347;42.122;24.746;2023-01-26T03:44:50;100235.81;;;2.17;100.00
2675;BME280;1347;42.122;24.746;2023-01-26T03:47:36;100232.97;;;2.09;100.00
2675;BME280;1347;42.122;24.746;2023-01-26T03:50:21;100226.00;;;1.89;100.00
2675;BME280;1347;42.122;24.746;2023-01-26T03:53:12;100223.97;;;1.81;100.00
2675;BME280;1347;42.122;24.746;2023-01-26T03:55:57;100216.78;;;1.90;100.00
2675;BME280;1347;42.122;24.746;2023-01-26T03:58:42;100212.13;;;1.77;100.00
2675;BME280;1347;42.122;24.746;2023-01-26T04:01:09;100206.16;;;1.80;100.00
2675;BME280;1347;42.122;24.746;2023-01-26T04:03:49;100208.25;;;1.64;100.00
2675;BME280;1347;42.122;24.746;2023-01-26T04:06:34;100200.09;;;1.69;100.00
2675;BME280;1347;42.122;24.746;2023-01-26T04:09:19;100192.28;;;1.68;100.00
2675;BME280;1347;42.122;24.746;2023-01-26T04:11:46;100203.22;;;1.76;100.00
2675;BME280;1347;42.122;24.746;2023-01-26T04:14:14;100207.91;;;1.71;100.00
2675;BME280;1347;42.122;24.746;2023-01-26T04:17:00;100209.88;;;1.65;100.00
2675;BME280;1347;42.122;24.746;2023-01-26T04:19:46;100201.06;;;1.60;100.00
2675;BME280;1347;42.122;24.746;2023-01-26T04:22:34;100198.34;;;1.60;100.00
2675;BME280;1347;42.122;24.746;2023-01-26T04:25:06;100183.47;;;1.62;100.00
2675;BME280;1347;42.122;24.746;2023-01-26T04:27:33;100190.75;;;1.62;100.00
2675;BME280;1347;42.122;24.746;2023-01-26T04:30:00;100182.00;;;1.51;100.00
2675;BME280;1347;42.122;24.746;2023-01-26T04:32:28;100189.72;;;1.58;100.00
2675;BME280;1347;42.122;24.746;2023-01-26T04:34:56;100182.03;;;1.65;100.00
2675;BME280;1347;42.122;24.746;2023-01-26T04:37:23;100177.66;;;1.69;100.00
2675;BME280;1347;42.122;24.746;2023-01-26T04:39:50;100173.47;;;1.63;100.00
2675;BME280;1347;42.122;24.746;2023-01-26T04:42:17;100175.78;;;1.69;100.00
2675;BME280;1347;42.122;24.746;2023-01-26T04:44:44;100170.81;;;1.58;100.00
2675;BME280;1347;42.122;24.746;2023-01-26T04:47:10;100169.22;;;1.57;100.00
2675;BME280;1347;42.122;24.746;2023-01-26T04:49:37;100175.13;;;1.59;100.00
2675;BME280;1347;42.122;24.746;2023-01-26T04:52:06;100176.16;;;1.63;100.00
2675;BME280;1347;42.122;24.746;2023-01-26T04:54:32;100169.78;;;1.54;100.00
2675;BME280;1347;42.122;24.746;2023-01-26T04:56:59;100180.09;;;1.52;100.00
2675;BME280;1347;42.122;24.746;2023-01-26T04:59:26;100181.91;;;1.56;100.00
2675;BME280;1347;42.122;24.746;2023-01-26T05:01:53;100193.38;;;1.67;100.00
2675;BME280;1347;42.122;24.746;2023-01-26T05:04:21;100182.56;;;1.67;100.00
2675;BME280;1347;42.122;24.746;2023-01-26T05:06:48;100186.66;;;1.64;100.00
2675;BME280;1347;42.122;24.746;2023-01-26T05:09:16;100177.38;;;1.70;100.00
2675;BME280;1347;42.122;24.746;2023-01-26T05:11:43;100185.19;;;1.72;99.24
2675;BME280;1347;42.122;24.746;2023-01-26T05:14:10;100181.41;;;1.73;98.72
2675;BME280;1347;42.122;24.746;2023-01-26T05:16:36;100175.78;;;1.69;98.20
2675;BME280;1347;42.122;24.746;2023-01-26T05:19:03;100176.34;;;1.66;98.85
2675;BME280;1347;42.122;24.746;2023-01-26T05:21:30;100174.75;;;1.46;100.00
2675;BME280;1347;42.122;24.746;2023-01-26T05:23:57;100170.44;;;1.45;100.00
2675;BME280;1347;42.122;24.746;2023-01-26T05:26:26;100171.19;;;1.51;100.00
2675;BME280;1347;42.122;24.746;2023-01-26T05:28:53;100168.78;;;1.50;100.00
2675;BME280;1347;42.122;24.746;2023-01-26T05:31:19;100168.78;;;1.50;100.00
2675;BME280;1347;42.122;24.746;2023-01-26T05:33:46;100156.22;;;1.40;100.00
2675;BME280;1347;42.122;24.746;2023-01-26T05:36:13;100145.69;;;1.57;100.00
2675;BME280;1347;42.122;24.746;2023-01-26T05:38:40;100143.34;;;1.69;100.00
2675;BME280;1347;42.122;24.746;2023-01-26T05:41:07;100150.06;;;1.72;100.00
2675;BME280;1347;42.122;24.746;2023-01-26T05:43:35;100148.16;;;1.72;100.00
2675;BME280;1347;42.122;24.746;2023-01-26T05:46:02;100146.47;;;1.76;100.00
2675;BME280;1347;42.122;24.746;2023-01-26T05:48:29;100151.88;;;1.76;99.72
2675;BME280;1347;42.122;24.746;2023-01-26T05:50:56;100148.97;;;1.73;99.69
2675;BME280;1347;42.122;24.746;2023-01-26T05:53:23;100148.22;;;1.67;99.67
2675;BME280;1347;42.122;24.746;2023-01-26T05:55:50;100149.72;;;1.60;98.73
2675;BME280;1347;42.122;24.746;2023-01-26T05:58:17;100144.91;;;1.57;99.19
2675;BME280;1347;42.122;24.746;2023-01-26T06:00:45;100150.59;;;1.55;99.53
2675;BME280;1347;42.122;24.746;2023-01-26T06:03:12;100145.31;;;1.64;99.77
2675;BME280;1347;42.122;24.746;2023-01-26T06:05:39;100145.94;;;1.74;99.40
2675;BME280;1347;42.122;24.746;2023-01-26T06:08:06;100144.16;;;1.83;99.73
2675;BME280;1347;42.122;24.746;2023-01-26T06:10:33;100129.09;;;1.96;99.69
2675;BME280;1347;42.122;24.746;2023-01-26T06:13:00;100133.22;;;2.07;99.85
2675;BME280;1347;42.122;24.746;2023-01-26T06:15:27;100133.44;;;2.11;100.00
2675;BME280;1347;42.122;24.746;2023-01-26T06:17:55;100133.84;;;2.18;98.91
2675;BME280;1347;42.122;24.746;2023-01-26T06:20:22;100133.44;;;2.25;97.55
2675;BME280;1347;42.122;24.746;2023-01-26T06:22:49;100133.75;;;2.23;97.74
2675;BME280;1347;42.122;24.746;2023-01-26T06:25:15;100134.13;;;2.16;97.26
2675;BME280;1347;42.122;24.746;2023-01-26T06:27:42;100136.31;;;2.01;97.99
2675;BME280;1347;42.122;24.746;2023-01-26T06:30:10;100134.94;;;2.03;98.89
2675;BME280;1347;42.122;24.746;2023-01-26T06:32:37;100143.16;;;2.12;98.96
2675;BME280;1347;42.122;24.746;2023-01-26T06:35:07;100143.34;;;2.15;98.04
2675;BME280;1347;42.122;24.746;2023-01-26T06:37:34;100139.25;;;2.18;98.25
2675;BME280;1347;42.122;24.746;2023-01-26T06:40:01;100133.34;;;2.30;98.69
2675;BME280;1347;42.122;24.746;2023-01-26T06:42:28;100135.88;;;2.40;97.79
2675;BME280;1347;42.122;24.746;2023-01-26T06:44:55;100135.56;;;2.41;97.22
2675;BME280;1347;42.122;24.746;2023-01-26T06:47:23;100128.78;;;2.44;97.09
2675;BME280;1347;42.122;24.746;2023-01-26T06:49:50;100124.13;;;2.44;96.63
2675;BME280;1347;42.122;24.746;2023-01-26T06:52:22;100127.34;;;2.46;95.48
2675;BME280;1347;42.122;24.746;2023-01-26T06:54:52;100119.53;;;2.45;94.96
2675;BME280;1347;42.122;24.746;2023-01-26T06:57:19;100124.34;;;2.48;94.54
2675;BME280;1347;42.122;24.746;2023-01-26T06:59:46;100117.44;;;2.42;93.61
2675;BME280;1347;42.122;24.746;2023-01-26T07:02:16;100124.16;;;2.31;93.58
2675;BME280;1347;42.122;24.746;2023-01-26T07:04:43;100113.00;;;2.18;93.71
2675;BME280;1347;42.122;24.746;2023-01-26T07:07:10;100108.50;;;2.28;94.36
2675;BME280;1347;42.122;24.746;2023-01-26T07:09:39;100113.63;;;2.29;94.80
2675;BME280;1347;42.122;24.746;2023-01-26T07:12:06;100112.13;;;2.37;93.92
2675;BME280;1347;42.122;24.746;2023-01-26T07:14:33;100108.91;;;2.35;93.93
2675;BME280;1347;42.122;24.746;2023-01-26T07:17:01;100101.69;;;2.30;94.77
2675;BME280;1347;42.122;24.746;2023-01-26T07:19:28;100101.81;;;2.39;95.00
2675;BME280;1347;42.122;24.746;2023-01-26T07:21:57;100099.47;;;2.46;95.17
2675;BME280;1347;42.122;24.746;2023-01-26T07:24:24;100096.91;;;2.41;95.08
2675;BME280;1347;42.122;24.746;2023-01-26T07:26:52;100089.28;;;2.29;95.14
2675;BME280;1347;42.122;24.746;2023-01-26T07:29:19;100097.69;;;2.28;96.01
2675;BME280;1347;42.122;24.746;2023-01-26T07:31:46;100088.38;;;2.34;96.90
2675;BME280;1347;42.122;24.746;2023-01-26T07:34:13;100082.56;;;2.27;96.40
2675;BME280;1347;42.122;24.746;2023-01-26T07:36:41;100077.63;;;2.15;97.95
2675;BME280;1347;42.122;24.746;2023-01-26T07:39:07;100082.34;;;1.96;99.84
2675;BME280;1347;42.122;24.746;2023-01-26T07:41:34;100079.13;;;1.80;100.00
2675;BME280;1347;42.122;24.746;2023-01-26T07:44:03;100071.81;;;1.80;100.00
2675;BME280;1347;42.122;24.746;2023-01-26T07:46:32;100075.31;;;1.81;100.00
2675;BME280;1347;42.122;24.746;2023-01-26T07:48:59;100074.00;;;1.78;100.00
2675;BME280;1347;42.122;24.746;2023-01-26T07:51:26;100069.28;;;1.84;100.00
2675;BME280;1347;42.122;24.746;2023-01-26T07:53:53;100072.94;;;1.93;100.00
2675;BME280;1347;42.122;24.746;2023-01-26T07:56:20;100065.59;;;1.94;100.00
2675;BME280;1347;42.122;24.746;2023-01-26T07:58:50;100069.22;;;1.89;100.00
2675;BME280;1347;42.122;24.746;2023-01-26T08:01:19;100066.50;;;1.89;100.00
2675;BME280;1347;42.122;24.746;2023-01-26T08:03:48;100067.91;;;1.87;100.00
2675;BME280;1347;42.122;24.746;2023-01-26T08:06:16;100062.09;;;1.79;100.00
2675;BME280;1347;42.122;24.746;2023-01-26T08:08:43;100060.50;;;1.78;100.00
2675;BME280;1347;42.122;24.746;2023-01-26T08:11:11;100061.88;;;1.76;100.00
2675;BME280;1347;42.122;24.746;2023-01-26T08:13:38;100060.44;;;1.65;100.00
2675;BME280;1347;42.122;24.746;2023-01-26T08:16:07;100067.84;;;1.59;100.00
2675;BME280;1347;42.122;24.746;2023-01-26T08:18:38;100065.97;;;1.60;100.00
2675;BME280;1347;42.122;24.746;2023-01-26T08:21:05;100063.75;;;1.62;100.00
2675;BME280;1347;42.122;24.746;2023-01-26T08:23:32;100060.56;;;1.60;100.00
2675;BME280;1347;42.122;24.746;2023-01-26T08:26:00;100047.41;;;1.53;100.00
2675;BME280;1347;42.122;24.746;2023-01-26T08:28:27;100053.25;;;1.60;100.00
2675;BME280;1347;42.122;24.746;2023-01-26T08:30:54;100043.94;;;1.66;100.00
2675;BME280;1347;42.122;24.746;2023-01-26T08:33:21;100047.44;;;1.67;100.00
2675;BME280;1347;42.122;24.746;2023-01-26T08:35:50;100051.88;;;1.63;100.00
2675;BME280;1347;42.122;24.746;2023-01-26T08:38:17;100045.94;;;1.61;100.00
2675;BME280;1347;42.122;24.746;2023-01-26T08:40:44;100038.34;;;1.63;100.00
2675;BME280;1347;42.122;24.746;2023-01-26T08:43:16;100035.75;;;1.71;100.00
2675;BME280;1347;42.122;24.746;2023-01-26T08:45:46;100040.38;;;1.84;100.00
2675;BME280;1347;42.122;24.746;2023-01-26T08:48:13;100029.78;;;1.88;100.00
2675;BME280;1347;42.122;24.746;2023-01-26T08:50:40;100032.38;;;1.93;100.00
2675;BME280;1347;42.122;24.746;2023-01-26T08:53:08;100030.28;;;1.90;100.00
2675;BME280;1347;42.122;24.746;2023-01-26T08:55:35;100030.59;;;2.02;100.00
2675;BME280;1347;42.122;24.746;2023-01-26T08:58:02;100030.47;;;1.94;100.00
2675;BME280;1347;42.122;24.746;2023-01-26T09:00:29;100027.75;;;1.80;100.00
2675;BME280;1347;42.122;24.746;2023-01-26T09:02:58;100017.25;;;1.78;100.00
2675;BME280;1347;42.122;24.746;2023-01-26T09:05:25;100018.25;;;1.82;100.00
2675;BME280;1347;42.122;24.746;2023-01-26T09:07:52;100028.88;;;1.93;100.00
2675;BME280;1347;42.122;24.746;2023-01-26T09:10:21;100018.84;;;2.07;100.00
2675;BME280;1347;42.122;24.746;2023-01-26T09:12:48;100016.25;;;2.29;100.00
2675;BME280;1347;42.122;24.746;2023-01-26T09:15:15;100022.34;;;2.48;100.00
2675;BME280;1347;42.122;24.746;2023-01-26T09:17:42;100025.91;;;2.57;100.00
2675;BME280;1347;42.122;24.746;2023-01-26T09:20:10;100019.03;;;2.51;100.00
2675;BME280;1347;42.122;24.746;2023-01-26T09:22:37;100013.09;;;2.49;100.00
2675;BME280;1347;42.122;24.746;2023-01-26T09:25:05;100009.28;;;2.64;100.00
2675;BME280;1347;42.122;24.746;2023-01-26T09:27:33;100006.81;;;2.76;100.00
2675;BME280;1347;42.122;24.746;2023-01-26T09:30:00;100005.53;;;2.74;100.00
2675;BME280;1347;42.122;24.746;2023-01-26T09:32:27;99996.78;;;2.77;100.00
2675;BME280;1347;42.122;24.746;2023-01-26T09:34:55;99993.72;;;2.70;100.00
2675;BME280;1347;42.122;24.746;2023-01-26T09:37:22;99984.75;;;2.47;100.00
2675;BME280;1347;42.122;24.746;2023-01-26T09:39:49;99979.84;;;2.49;100.00
2675;BME280;1347;42.122;24.746;2023-01-26T09:42:37;99978.50;;;2.60;100.00
2675;BME280;1347;42.122;24.746;2023-01-26T09:45:15;99976.94;;;2.45;100.00
2675;BME280;1347;42.122;24.746;2023-01-26T09:47:59;99956.28;;;2.49;100.00
2675;BME280;1347;42.122;24.746;2023-01-26T09:50:35;99952.34;;;2.55;100.00
2675;BME280;1347;42.122;24.746;2023-01-26T09:53:08;99956.72;;;2.65;100.00
2675;BME280;1347;42.122;24.746;2023-01-26T09:55:39;99949.81;;;2.73;100.00
2675;BME280;1347;42.122;24.746;2023-01-26T09:58:14;99954.47;;;2.81;100.00
2675;BME280;1347;42.122;24.746;2023-01-26T10:00:46;99941.50;;;2.69;100.00
2675;BME280;1347;42.122;24.746;2023-01-26T10:03:21;99934.06;;;2.39;100.00
2675;BME280;1347;42.122;24.746;2023-01-26T10:05:56;99937.22;;;2.05;100.00
2675;BME280;1347;42.122;24.746;2023-01-26T10:08:24;99928.16;;;2.01;100.00
2675;BME280;1347;42.122;24.746;2023-01-26T10:10:53;99925.63;;;2.04;100.00
2675;BME280;1347;42.122;24.746;2023-01-26T10:13:23;99915.44;;;2.01;100.00
2675;BME280;1347;42.122;24.746;2023-01-26T10:15:52;99922.44;;;1.89;100.00
2675;BME280;1347;42.122;24.746;2023-01-26T10:18:24;99918.94;;;1.88;100.00
2675;BME280;1347;42.122;24.746;2023-01-26T10:20:53;99914.84;;;1.91;100.00
2675;BME280;1347;42.122;24.746;2023-01-26T10:23:22;99919.94;;;1.92;100.00
2675;BME280;1347;42.122;24.746;2023-01-26T10:25:51;99908.34;;;1.92;100.00
2675;BME280;1347;42.122;24.746;2023-01-26T10:28:27;99908.94;;;1.89;100.00
2675;BME280;1347;42.122;24.746;2023-01-26T10:30:54;99896.81;;;2.00;100.00
2675;BME280;1347;42.122;24.746;2023-01-26T10:33:25;99888.41;;;2.01;100.00
2675;BME280;1347;42.122;24.746;2023-01-26T10:35:53;99883.81;;;1.74;100.00
2675;BME280;1347;42.122;24.746;2023-01-26T10:38:42;99873.34;;;1.73;100.00
2675;BME280;1347;42.122;24.746;2023-01-26T10:41:25;99863.00;;;1.75;100.00
2675;BME280;1347;42.122;24.746;2023-01-26T10:43:55;99858.28;;;1.80;100.00
2675;BME280;1347;42.122;24.746;2023-01-26T10:46:26;99853.47;;;1.91;100.00
2675;BME280;1347;42.122;24.746;2023-01-26T10:48:54;99850.13;;;1.94;100.00
2675;BME280;1347;42.122;24.746;2023-01-26T10:51:27;99840.59;;;2.10;100.00
2675;BME280;1347;42.122;24.746;2023-01-26T10:54:23;99834.34;;;2.46;100.00
2675;BME280;1347;42.122;24.746;2023-01-26T10:56:52;99832.31;;;2.51;100.00
2675;BME280;1347;42.122;24.746;2023-01-26T10:59:33;99833.13;;;2.30;100.00
2675;BME280;1347;42.122;24.746;2023-01-26T11:02:23;99840.59;;;2.10;100.00
2675;BME280;1347;42.122;24.746;2023-01-26T11:07:47;99830.53;;;2.25;100.00
2675;BME280;1347;42.122;24.746;2023-01-26T11:10:23;99824.75;;;2.17;100.00
2675;BME280;1347;42.122;24.746;2023-01-26T11:12:51;99816.19;;;2.24;100.00
2675;BME280;1347;42.122;24.746;2023-01-26T11:15:21;99815.78;;;2.31;100.00
2675;BME280;1347;42.122;24.746;2023-01-26T11:17:52;99811.47;;;2.30;100.00
2675;BME280;1347;42.122;24.746;2023-01-26T11:20:45;99800.66;;;2.30;100.00
2675;BME280;1347;42.122;24.746;2023-01-26T11:23:19;99804.91;;;2.22;100.00
2675;BME280;1347;42.122;24.746;2023-01-26T11:26:02;99796.72;;;2.36;100.00
2675;BME280;1347;42.122;24.746;2023-01-26T11:28:41;99801.81;;;2.37;100.00
2675;BME280;1347;42.122;24.746;2023-01-26T11:31:23;99787.13;;;2.30;100.00
2675;BME280;1347;42.122;24.746;2023-01-26T11:34:03;99776.44;;;2.25;100.00
2675;BME280;1347;42.122;24.746;2023-01-26T11:36:39;99763.03;;;2.19;100.00
2675;BME280;1347;42.122;24.746;2023-01-26T11:39:16;99748.91;;;2.22;100.00
2675;BME280;1347;42.122;24.746;2023-01-26T11:41:57;99747.69;;;2.29;100.00
2675;BME280;1347;42.122;24.746;2023-01-26T11:44:45;99747.63;;;2.20;100.00
2675;BME280;1347;42.122;24.746;2023-01-26T11:47:30;99735.94;;;2.33;100.00
2675;BME280;1347;42.122;24.746;2023-01-26T11:50:16;99727.69;;;2.38;100.00
2675;BME280;1347;42.122;24.746;2023-01-26T11:53:01;99728.19;;;2.40;100.00
2675;BME280;1347;42.122;24.746;2023-01-26T11:55:47;99720.72;;;2.46;100.00
2675;BME280;1347;42.122;24.746;2023-01-26T11:58:29;99722.63;;;2.45;100.00
2675;BME280;1347;42.122;24.746;2023-01-26T12:01:01;99717.13;;;2.59;100.00
2675;BME280;1347;42.122;24.746;2023-01-26T12:03:41;99723.34;;;2.59;100.00
2675;BME280;1347;42.122;24.746;2023-01-26T12:06:16;99717.47;;;2.66;100.00
2675;BME280;1347;42.122;24.746;2023-01-26T12:08:46;99705.19;;;2.60;100.00
2675;BME280;1347;42.122;24.746;2023-01-26T12:11:18;99703.63;;;2.68;100.00
2675;BME280;1347;42.122;24.746;2023-01-26T12:14:04;99703.94;;;2.66;100.00
2675;BME280;1347;42.122;24.746;2023-01-26T12:16:55;99696.81;;;2.79;100.00
2675;BME280;1347;42.122;24.746;2023-01-26T12:19:35;99702.53;;;2.77;100.00
2675;BME280;1347;42.122;24.746;2023-01-26T12:22:08;99704.47;;;2.77;100.00
2675;BME280;1347;42.122;24.746;2023-01-26T12:24:39;99694.84;;;2.53;100.00
2675;BME280;1347;42.122;24.746;2023-01-26T12:27:13;99701.03;;;2.54;100.00
2675;BME280;1347;42.122;24.746;2023-01-26T12:29:49;99696.00;;;2.70;100.00
2675;BME280;1347;42.122;24.746;2023-01-26T12:32:18;99691.59;;;2.82;100.00
2675;BME280;1347;42.122;24.746;2023-01-26T12:34:51;99687.09;;;2.78;100.00
2675;BME280;1347;42.122;24.746;2023-01-26T12:37:34;99685.47;;;2.68;100.00
2675;BME280;1347;42.122;24.746;2023-01-26T12:40:11;99684.09;;;2.79;100.00
2675;BME280;1347;42.122;24.746;2023-01-26T12:42:46;99682.97;;;2.80;100.00
2675;BME280;1347;42.122;24.746;2023-01-26T12:45:21;99679.78;;;2.78;100.00
2675;BME280;1347;42.122;24.746;2023-01-26T12:47:54;99677.53;;;2.72;100.00
2675;BME280;1347;42.122;24.746;2023-01-26T12:50:28;99668.84;;;2.83;100.00
2675;BME280;1347;42.122;24.746;2023-01-26T12:52:58;99670.56;;;2.79;100.00
2675;BME280;1347;42.122;24.746;2023-01-26T12:55:31;99669.72;;;2.70;100.00
2675;BME280;1347;42.122;24.746;2023-01-26T12:58:02;99664.44;;;2.65;100.00
2675;BME280;1347;42.122;24.746;2023-01-26T13:00:33;99673.38;;;2.66;100.00
2675;BME280;1347;42.122;24.746;2023-01-26T13:03:04;99663.50;;;2.61;100.00
2675;BME280;1347;42.122;24.746;2023-01-26T13:05:34;99662.22;;;2.58;100.00
2675;BME280;1347;42.122;24.746;2023-01-26T13:08:38;99663.19;;;2.63;100.00
2675;BME280;1347;42.122;24.746;2023-01-26T13:11:07;99652.69;;;2.61;100.00
2675;BME280;1347;42.122;24.746;2023-01-26T13:13:51;99655.69;;;2.59;100.00
2675;BME280;1347;42.122;24.746;2023-01-26T13:16:32;99648.09;;;2.70;100.00
2675;BME280;1347;42.122;24.746;2023-01-26T13:19:00;99648.25;;;2.74;100.00
2675;BME280;1347;42.122;24.746;2023-01-26T13:21:41;99638.25;;;2.74;100.00
2675;BME280;1347;42.122;24.746;2023-01-26T13:24:41;99637.53;;;2.60;100.00
2675;BME280;1347;42.122;24.746;2023-01-26T13:27:29;99637.22;;;2.53;100.00
2675;BME280;1347;42.122;24.746;2023-01-26T13:29:57;99634.50;;;2.53;100.00